Time;durP1;ratioP1;P1;durP2;ratioP2;P2;SDS_P1;SDS_P2;PMS_P1;PMS_P2;Temp;Humidity;BMP_temperature;BMP_pressure;BME280_temperature;BME280_humidity;BME280_pressure;Samples;Min_cycle;Max_cycle;Signal;HPM_P1;HPM_P2
2021/10/26 00:02:05;;;;;;;18.50;9.00;;;;;;;5.71;60.68;99144.14;460050;1193;97704;-40
2021/10/26 00:12:11;;;;;;;17.40;10.10;;;;;;;5.65;60.89;99145.39;460082;1197;109674;-42
2021/10/26 00:22:18;;;;;;;19.90;10.20;;;;;;;5.44;61.01;99138.61;459229;1195;108530;-40
2021/10/26 00:32:26;;;;;;;19.80;10.90;;;;;;;5.28;61.45;99133.75;460059;1193;108544;-41
2021/10/26 00:42:33;;;;;;;16.20;7.30;;;;;;;5.22;61.84;99129.20;458961;1195;97732;-41
2021/10/26 00:52:43;;;;;;;16.80;8.70;;;;;;;5.41;62.00;99133.30;460141;1193;110849;-40
2021/10/26 01:02:50;;;;;;;17.90;10.10;;;;;;;5.29;61.99;99133.43;459160;1196;108673;-39
2021/10/26 01:12:57;;;;;;;24.90;11.30;;;;;;;4.88;62.36;99130.61;460337;1174;97697;-41
2021/10/26 01:23:04;;;;;;;21.20;11.40;;;;;;;4.59;62.67;99132.29;459181;1196;97677;-41
2021/10/26 01:33:12;;;;;;;17.40;10.60;;;;;;;4.34;63.08;99118.84;459068;1196;110707;-41
2021/10/26 01:43:20;;;;;;;11.10;7.30;;;;;;;4.35;63.58;99123.48;459365;1196;108531;-41
2021/10/26 02:03:34;;;;;;;15.30;9.50;;;;;;;4.69;64.16;99118.23;459030;1196;110771;-44
2021/10/26 02:13:43;;;;;;;24.00;11.10;;;;;;;4.63;64.44;99113.65;459115;1195;108526;-41
2021/10/26 02:23:50;;;;;;;21.10;12.50;;;;;;;4.61;64.59;99115.80;459148;1194;108494;-41
2021/10/26 02:33:57;;;;;;;25.00;12.80;;;;;;;4.50;64.70;99116.63;459198;1194;97693;-41
2021/10/26 02:44:04;;;;;;;23.00;12.40;;;;;;;4.43;64.86;99122.81;458999;1196;96873;-40
2021/10/26 02:54:12;;;;;;;13.60;8.60;;;;;;;4.43;65.05;99125.06;459082;1194;109824;-41
2021/10/26 03:04:19;;;;;;;22.80;8.20;;;;;;;4.52;65.14;99122.87;459491;1195;108511;-42
2021/10/26 03:14:26;;;;;;;23.40;12.70;;;;;;;4.65;65.29;99125.35;459829;1194;96755;-41
2021/10/26 03:24:34;;;;;;;21.80;12.60;;;;;;;4.62;65.54;99127.29;459331;1196;109833;-40
2021/10/26 03:34:43;;;;;;;24.70;13.70;;;;;;;4.61;65.79;99121.04;459702;1197;108324;-41
2021/10/26 03:44:50;;;;;;;28.70;15.00;;;;;;;4.61;65.98;99126.52;459277;1194;107729;-41
2021/10/26 03:54:57;;;;;;;22.80;10.70;;;;;;;4.63;66.01;99116.98;459483;1197;97696;-41
2021/10/26 04:05:14;;;;;;;18.10;8.90;;;;;;;4.90;66.33;99119.95;459944;1194;110593;-41
2021/10/26 04:15:19;;;;;;;18.40;10.30;;;;;;;5.10;66.36;99115.29;458831;1195;108598;-43
2021/10/26 04:25:26;;;;;;;18.30;11.30;;;;;;;5.20;66.50;99108.27;459567;1194;96759;-42
2021/10/26 04:35:33;;;;;;;20.00;11.40;;;;;;;5.38;66.62;99104.26;459667;1194;111344;-43
2021/10/26 04:55:48;;;;;;;15.70;7.80;;;;;;;5.89;66.35;99094.11;460005;1194;108540;-41
2021/10/26 05:05:55;;;;;;;16.80;10.00;;;;;;;6.07;66.21;99099.48;459343;1194;97693;-41
2021/10/26 05:16:03;;;;;;;20.30;10.70;;;;;;;6.12;66.29;99102.63;459329;1187;109879;-41
2021/10/26 05:26:11;;;;;;;22.90;11.80;;;;;;;6.10;66.13;99110.65;459714;1195;108483;-41
2021/10/26 05:36:18;;;;;;;21.60;11.10;;;;;;;6.04;66.03;99110.36;459347;1197;108487;-41
2021/10/26 05:46:25;;;;;;;24.90;13.80;;;;;;;6.03;66.12;99112.02;459576;1194;97682;-40
2021/10/26 05:56:33;;;;;;;13.10;9.60;;;;;;;6.21;65.97;99119.23;459337;1195;97949;-40
2021/10/26 06:06:40;;;;;;;18.00;10.80;;;;;;;6.48;66.06;99115.38;459389;1195;109002;-40
2021/10/26 06:16:48;;;;;;;17.10;10.50;;;;;;;6.71;65.81;99132.27;459645;1187;108775;-40
2021/10/26 06:26:56;;;;;;;20.00;11.40;;;;;;;6.94;65.57;99133.32;459240;1196;97606;-40
2021/10/26 06:47:10;;;;;;;19.60;11.80;;;;;;;7.59;64.87;99143.73;459329;1196;110646;-40
2021/10/26 06:57:19;;;;;;;22.20;9.90;;;;;;;7.75;64.65;99145.48;459439;1194;108467;-40
2021/10/26 07:07:25;;;;;;;;;;;;;;;8.07;64.12;99147.81;459812;1194;97915;-40
2021/10/26 07:17:32;;;;;;;17.80;10.20;;;;;;;8.56;63.72;99150.46;459652;1194;110845;-40
2021/10/26 07:27:41;;;;;;;17.80;10.60;;;;;;;8.88;63.06;99156.88;459596;1194;108628;-40
2021/10/26 07:37:48;;;;;;;18.90;10.40;;;;;;;8.98;62.47;99150.38;459661;1194;108631;-41
2021/10/26 07:47:55;;;;;;;19.50;10.90;;;;;;;9.08;62.13;99150.45;459540;1195;96751;-41
2021/10/26 07:58:03;;;;;;;16.90;9.90;;;;;;;9.69;61.90;99157.44;459919;1187;110795;-43
2021/10/26 08:08:11;;;;;;;17.40;8.70;;;;;;;10.47;60.73;99155.60;459314;1194;108517;-40
2021/10/26 08:18:17;;;;;;;22.70;11.60;;;;;;;10.25;59.87;99158.66;459563;1195;97821;-40
2021/10/26 08:28:26;;;;;;;14.70;9.50;;;;;;;10.21;59.68;99149.37;459481;1195;110837;-42
2021/10/26 08:48:41;;;;;;;18.50;9.30;;;;;;;10.39;59.35;99138.58;459551;1198;98277;-41
2021/10/26 08:58:50;;;;;;;13.20;9.10;;;;;;;10.40;59.05;99140.98;459488;1194;110684;-41
2021/10/26 09:08:58;;;;;;;17.40;9.30;;;;;;;10.20;58.74;99142.85;459639;1195;108595;-41
2021/10/26 09:19:09;;;;;;;16.00;9.70;;;;;;;10.12;58.72;99145.77;459757;1195;97756;-41
2021/10/26 09:29:16;;;;;;;15.00;10.10;;;;;;;10.12;58.63;99144.39;459602;1195;98253;-40
2021/10/26 09:39:21;;;;;;;17.20;10.20;;;;;;;10.13;58.62;99140.33;459282;1194;110770;-42
2021/10/26 09:49:29;;;;;;;18.50;10.40;;;;;;;10.34;58.79;99135.48;459644;1194;97830;-42
2021/10/26 09:59:52;;;;;;;18.20;11.30;;;;;;;10.40;58.77;99130.13;459220;1195;98401;-40
2021/10/26 10:09:57;;;;;;;19.00;11.40;;;;;;;10.40;59.00;99134.27;459780;1194;110825;-41
2021/10/26 10:20:04;;;;;;;21.00;12.40;;;;;;;10.67;59.01;99131.42;459507;1195;108577;-42
2021/10/26 10:30:11;;;;;;;19.50;12.10;;;;;;;11.05;58.98;99119.52;459677;1195;97690;-40
2021/10/26 10:40:23;;;;;;;20.90;12.60;;;;;;;11.29;58.85;99108.90;459668;1194;110837;-41
2021/10/26 10:50:39;;;;;;;16.30;11.60;;;;;;;11.70;58.58;99106.48;459634;1195;108508;-41
2021/10/26 11:00:46;;;;;;;21.20;13.10;;;;;;;11.74;58.16;99096.42;459745;1194;97682;-41
2021/10/26 11:11:04;;;;;;;20.50;12.50;;;;;;;11.63;58.07;99092.86;459893;1194;111086;-42
2021/10/26 11:41:24;;;;;;;20.10;12.30;;;;;;;12.07;58.09;99069.56;459603;1194;96340;-40
2021/10/26 11:51:31;;;;;;;20.20;12.20;;;;;;;12.13;57.51;99069.86;459648;1194;108492;-40
2021/10/26 12:01:39;;;;;;;22.60;12.50;;;;;;;11.97;57.39;99068.95;459651;1194;96398;-42
2021/10/26 12:11:49;;;;;;;19.70;12.90;;;;;;;11.91;57.52;99058.25;459208;1201;110797;-41
2021/10/26 12:21:57;;;;;;;25.50;15.10;;;;;;;11.95;57.47;99039.21;459655;1200;108557;-40
2021/10/26 12:32:04;;;;;;;17.70;12.00;;;;;;;12.00;57.54;99054.02;459522;1195;97670;-43
2021/10/26 12:52:35;;;;;;;20.60;12.10;;;;;;;11.84;57.52;99056.64;459961;1195;108724;-41
2021/10/26 13:02:42;;;;;;;18.00;12.10;;;;;;;11.78;57.50;99049.78;459661;1194;97787;-42
2021/10/26 13:13:05;;;;;;;21.00;12.50;;;;;;;11.75;57.58;99051.73;459578;1194;97767;-41
2021/10/26 13:23:15;;;;;;;20.80;12.70;;;;;;;11.68;57.55;99039.64;459330;1197;110856;-41
2021/10/26 13:33:20;;;;;;;;;;;;;;;11.59;57.66;99036.88;459556;1195;107417;-40
2021/10/26 13:43:28;;;;;;;18.80;11.80;;;;;;;11.41;57.83;99046.52;459420;1194;97695;-40
2021/10/26 13:53:34;;;;;;;26.70;13.10;;;;;;;11.32;57.96;99041.40;459427;1194;96322;-41
2021/10/26 14:03:41;;;;;;;26.40;13.80;;;;;;;11.41;58.17;99044.23;459807;1194;111032;-41
2021/10/26 14:13:49;;;;;;;23.60;13.30;;;;;;;11.46;58.19;99044.77;459178;1197;108447;-40
2021/10/26 14:23:56;;;;;;;21.20;12.00;;;;;;;11.33;58.21;99051.51;459377;1195;97643;-41
2021/10/26 14:34:23;;;;;;;19.60;12.40;;;;;;;11.12;58.31;99072.66;459484;1195;110806;-41
2021/10/26 14:55:18;;;;;;;35.90;19.10;;;;;;;10.58;58.94;99080.98;459568;1194;97706;-41
2021/10/26 15:05:26;;;;;;;37.20;19.00;;;;;;;10.27;59.14;99086.95;459510;1194;97794;-41
2021/10/26 15:15:34;;;;;;;37.10;18.10;;;;;;;10.04;59.63;99098.61;459538;1194;110845;-40
2021/10/26 15:26:01;;;;;;;32.50;18.30;;;;;;;9.92;60.10;99112.30;459464;1194;108640;-40
2021/10/26 15:36:09;;;;;;;65.70;35.10;;;;;;;9.79;60.32;99117.11;459409;1197;96365;-41
2021/10/26 15:46:17;;;;;;;76.90;35.80;;;;;;;9.68;60.46;99113.35;459577;1196;111044;-41
2021/10/26 15:56:25;;;;;;;58.80;30.40;;;;;;;9.64;60.89;99126.23;459344;1196;108252;-41
2021/10/26 16:06:33;;;;;;;65.60;38.10;;;;;;;9.63;61.21;99137.13;459531;1195;97678;-41
2021/10/26 16:16:40;;;;;;;78.10;43.80;;;;;;;9.39;61.36;99143.75;459480;1196;110128;-41
2021/10/26 16:57:24;;;;;;;91.80;47.90;;;;;;;8.76;62.93;99157.26;459520;1197;108417;-41
2021/10/26 17:07:32;;;;;;;79.50;41.10;;;;;;;8.86;63.08;99169.37;459694;1197;97303;-41
2021/10/26 17:17:38;;;;;;;86.80;44.20;;;;;;;8.85;63.26;99187.27;459411;1194;110459;-40
2021/10/26 17:27:46;;;;;;;86.20;46.20;;;;;;;8.70;63.48;99194.79;459588;1196;107632;-41
2021/10/26 17:37:53;;;;;;;101.10;52.80;;;;;;;8.44;63.63;99205.48;459730;1195;97692;-40
2021/10/26 17:48:01;;;;;;;103.10;52.20;;;;;;;8.17;63.95;99209.27;459540;1196;110800;-41
2021/10/26 17:58:08;;;;;;;87.90;44.80;;;;;;;7.99;64.04;99222.50;459619;1195;108636;-41
2021/10/26 18:08:15;;;;;;;72.40;40.30;;;;;;;7.90;64.34;99224.42;459341;1196;97684;-41
2021/10/26 18:18:23;;;;;;;109.20;52.20;;;;;;;7.90;64.77;99226.70;459576;1202;110757;-42
2021/10/26 18:38:38;;;;;;;91.80;43.40;;;;;;;7.54;65.19;99227.20;459456;1196;97266;-41
2021/10/26 18:48:55;;;;;;;87.60;44.00;;;;;;;7.36;65.38;99234.48;459582;1195;110913;-42
2021/10/26 18:59:01;;;;;;;93.90;43.30;;;;;;;7.27;65.39;99237.01;459552;1196;108311;-40
2021/10/26 19:09:08;;;;;;;68.50;39.20;;;;;;;7.30;65.74;99231.06;459243;1197;97724;-41
2021/10/26 19:19:15;;;;;;;69.90;37.90;;;;;;;7.30;66.00;99240.35;459227;1196;110697;-42
2021/10/26 19:29:24;;;;;;;89.70;47.20;;;;;;;7.22;66.47;99251.39;459550;1195;108677;-40
2021/10/26 19:39:30;;;;;;;;;;;;;;;7.14;66.66;99250.33;459597;1194;96356;-41
2021/10/26 19:49:36;;;;;;;74.60;41.80;;;;;;;7.09;66.78;99259.10;459858;1196;97269;-41
2021/10/26 19:59:44;;;;;;;75.90;39.80;;;;;;;7.16;67.04;99262.88;459572;1196;110753;-41
2021/10/26 20:09:52;;;;;;;72.40;40.70;;;;;;;7.34;67.18;99273.15;459503;1196;108098;-41
2021/10/26 20:19:59;;;;;;;84.90;42.10;;;;;;;7.51;67.42;99279.72;459550;1197;97669;-40
2021/10/26 20:30:10;;;;;;;79.40;41.80;;;;;;;7.52;67.52;99296.33;459414;1197;110798;-41
2021/10/26 20:40:16;;;;;;;72.50;40.10;;;;;;;7.54;67.61;99303.66;459781;1195;107274;-41
2021/10/26 20:50:26;;;;;;;60.60;34.80;;;;;;;7.54;67.73;99294.11;459468;1196;96680;-43
2021/10/26 21:00:31;;;;;;;;;;;;;;;7.49;67.70;99290.20;459422;1195;97790;-41
2021/10/26 21:10:40;;;;;;;62.50;35.10;;;;;;;7.38;67.76;99288.60;460018;1197;110449;-40
2021/10/26 21:20:47;;;;;;;70.80;38.90;;;;;;;7.25;67.84;99297.94;459376;1195;97724;-41
2021/10/26 21:30:55;;;;;;;70.10;37.50;;;;;;;7.05;68.16;99303.05;459614;1196;110830;-41
2021/10/26 21:41:01;;;;;;;69.60;36.00;;;;;;;6.81;68.31;99315.42;459589;1197;106859;-41
2021/10/26 21:51:08;;;;;;;55.60;30.20;;;;;;;6.68;68.42;99308.36;459756;1194;108941;-43
2021/10/26 22:01:16;;;;;;;52.50;28.50;;;;;;;6.79;68.71;99301.05;459494;1197;97812;-41
2021/10/26 22:11:24;;;;;;;54.30;32.50;;;;;;;6.98;68.89;99297.98;459693;1195;109765;-42
2021/10/26 22:31:37;;;;;;;62.40;35.10;;;;;;;6.95;69.37;99318.95;459474;1195;97716;-41
2021/10/26 22:41:51;;;;;;;63.10;36.50;;;;;;;6.97;69.42;99321.84;459676;1195;109739;-41
2021/10/26 22:51:56;;;;;;;53.10;30.10;;;;;;;7.06;69.42;99319.84;459537;1196;108955;-41
2021/10/26 23:12:11;;;;;;;59.80;33.40;;;;;;;7.19;69.63;99318.17;459893;1195;109565;-43
2021/10/26 23:22:19;;;;;;;62.00;34.10;;;;;;;7.24;69.83;99319.17;459751;1196;108658;-42
2021/10/26 23:42:33;;;;;;;47.10;26.70;;;;;;;7.36;69.74;99328.63;459655;1194;111227;-40
2021/10/26 23:52:39;;;;;;;45.00;25.10;;;;;;;7.43;69.77;99336.73;459635;1194;108992;-40
